Charter Quote
Worldwide +1-877-727-2538 Call
Select Language Lang
SAFETY RELIABILITY EXPERIENCE

Private Jet Charter Services - Xianyang (ZLXY)

Paramount Business Jets offers private jet charter flights and luxury airliner charters to and from Xianyang.

AIRPORT INFORMATION
ICAOZLXY
IATAXIY
LOCATIONXi'An, China
FACILITY TYPEAIRPORT

At Paramount Business Jets you can hire chartered private jets to and from Xianyang with as little as 4 hours of notice. All flights booked via Paramount Business Jets are operated by certified direct air carriers that meet and exceed the FAA part 135 and 121 protocol or a foreign equivalent safety authority. Furthermore, Paramount Business Jets subscribes to ARGUS for their third party safety checks of operators, aircraft, and crews prior each and every flight to and from Xianyang and worldwide.

  • Quote a trip using Xianyang or call us 24/7 - 365 days a year at +1-877-727-2538.
Questions? Call +1-877-727-2538

METAR Weather Data at Xianyang, ZLXY, XIY

STATIONZLXY
OBSERVEDWed Sep 18, 21:00 UTC
NOWWed Sep 18, 21:48 UTC
AGE48 min ago
WINDNE at 7 mph
VISIBILITY10 miles
CLOUDSovercast
TEMP63°F (17°C)
DEWPT59°F (15°C)
HUMIDITY88%
BAROMETER1022 hPa (30.18 in Hg)
METARZLXY 182100Z 04003MPS 010V070 6000 OVC070 17/15 Q1022 NOSIG

Call us on +1-877-727-2538 (24 Hours) to Hire a Private Jet or Get a Quick Quote.

Find Airports Near any Location

Processing
...